sensor_id;sensor_type;location;lat;lon;timestamp;pressure;altitude;pressure_sealevel;temperature;humidity
50364;BME280;36272;59.400;17.982;2023-11-18T00:04:30;102151.25;;;0.77;81.28
50364;BME280;36272;59.400;17.982;2023-11-18T00:09:31;102154.13;;;0.74;81.35
50364;BME280;36272;59.400;17.982;2023-11-18T00:14:33;102152.59;;;0.71;81.26
50364;BME280;36272;59.400;17.982;2023-11-18T00:19:34;102151.97;;;0.68;81.40
50364;BME280;36272;59.400;17.982;2023-11-18T00:24:42;102145.28;;;0.64;81.64
50364;BME280;36272;59.400;17.982;2023-11-18T00:29:45;102153.31;;;0.62;81.36
50364;BME280;36272;59.400;17.982;2023-11-18T00:34:46;102156.31;;;0.57;81.48
50364;BME280;36272;59.400;17.982;2023-11-18T00:39:48;102151.16;;;0.56;81.40
50364;BME280;36272;59.400;17.982;2023-11-18T00:44:54;102147.69;;;0.55;81.56
50364;BME280;36272;59.400;17.982;2023-11-18T00:49:56;102157.38;;;0.55;81.47
50364;BME280;36272;59.400;17.982;2023-11-18T00:54:59;102154.75;;;0.55;81.37
50364;BME280;36272;59.400;17.982;2023-11-18T01:00:00;102156.56;;;0.54;81.65
50364;BME280;36272;59.400;17.982;2023-11-18T01:05:02;102152.00;;;0.56;81.49
50364;BME280;36272;59.400;17.982;2023-11-18T01:10:07;102152.72;;;0.58;81.60
50364;BME280;36272;59.400;17.982;2023-11-18T01:15:11;102166.59;;;0.61;81.64
50364;BME280;36272;59.400;17.982;2023-11-18T01:20:13;102169.97;;;0.63;81.66
50364;BME280;36272;59.400;17.982;2023-11-18T01:25:21;102165.41;;;0.65;81.71
50364;BME280;36272;59.400;17.982;2023-11-18T01:30:22;102180.84;;;0.69;81.80
50364;BME280;36272;59.400;17.982;2023-11-18T01:35:27;102170.88;;;0.73;81.70
50364;BME280;36272;59.400;17.982;2023-11-18T01:40:29;102162.75;;;0.76;81.76
50364;BME280;36272;59.400;17.982;2023-11-18T01:45:32;102156.16;;;0.82;82.00
50364;BME280;36272;59.400;17.982;2023-11-18T01:50:35;102156.88;;;0.84;81.91
50364;BME280;36272;59.400;17.982;2023-11-18T01:55:48;102145.25;;;0.86;82.35
50364;BME280;36272;59.400;17.982;2023-11-18T02:00:51;102141.66;;;0.87;82.22
50364;BME280;36272;59.400;17.982;2023-11-18T02:05:58;102135.56;;;0.87;82.44
50364;BME280;36272;59.400;17.982;2023-11-18T02:11:17;102135.28;;;0.90;82.42
50364;BME280;36272;59.400;17.982;2023-11-18T02:16:23;102134.31;;;0.91;82.39
50364;BME280;36272;59.400;17.982;2023-11-18T02:21:25;102130.63;;;0.94;82.35
50364;BME280;36272;59.400;17.982;2023-11-18T02:26:28;102135.75;;;0.95;82.40
50364;BME280;36272;59.400;17.982;2023-11-18T02:31:34;102134.06;;;0.94;82.47
50364;BME280;36272;59.400;17.982;2023-11-18T02:36:46;102139.47;;;0.93;82.37
50364;BME280;36272;59.400;17.982;2023-11-18T02:41:52;102132.53;;;0.92;82.34
50364;BME280;36272;59.400;17.982;2023-11-18T02:46:58;102132.53;;;0.92;82.26
50364;BME280;36272;59.400;17.982;2023-11-18T02:52:00;102133.59;;;0.89;82.27
50364;BME280;36272;59.400;17.982;2023-11-18T02:57:02;102131.25;;;0.86;82.23
50364;BME280;36272;59.400;17.982;2023-11-18T03:02:07;102129.44;;;0.86;82.16
50364;BME280;36272;59.400;17.982;2023-11-18T03:07:08;102130.97;;;0.89;81.86
50364;BME280;36272;59.400;17.982;2023-11-18T03:12:10;102126.81;;;0.86;81.96
50364;BME280;36272;59.400;17.982;2023-11-18T03:17:14;102129.44;;;0.86;81.74
50364;BME280;36272;59.400;17.982;2023-11-18T03:22:15;102133.88;;;0.86;81.70
50364;BME280;36272;59.400;17.982;2023-11-18T03:27:17;102137.25;;;0.88;81.67
50364;BME280;36272;59.400;17.982;2023-11-18T03:32:19;102133.50;;;0.91;81.71
50364;BME280;36272;59.400;17.982;2023-11-18T03:37:21;102131.59;;;0.93;81.64
50364;BME280;36272;59.400;17.982;2023-11-18T03:42:24;102127.84;;;0.95;81.26
50364;BME280;36272;59.400;17.982;2023-11-18T03:47:26;102131.34;;;0.96;81.40
50364;BME280;36272;59.400;17.982;2023-11-18T03:52:27;102133.72;;;0.99;81.47
50364;BME280;36272;59.400;17.982;2023-11-18T03:57:30;102134.69;;;0.98;81.20
50364;BME280;36272;59.400;17.982;2023-11-18T04:02:32;102138.16;;;0.98;81.23
50364;BME280;36272;59.400;17.982;2023-11-18T04:07:35;102134.69;;;0.98;81.45
50364;BME280;36272;59.400;17.982;2023-11-18T04:12:37;102128.69;;;0.96;81.41
50364;BME280;36272;59.400;17.982;2023-11-18T04:17:42;102132.06;;;0.98;81.27
50364;BME280;36272;59.400;17.982;2023-11-18T04:22:45;102125.81;;;0.99;81.47
50364;BME280;36272;59.400;17.982;2023-11-18T04:27:47;102126.41;;;1.02;81.33
50364;BME280;36272;59.400;17.982;2023-11-18T04:32:48;102116.00;;;1.01;81.38
50364;BME280;36272;59.400;17.982;2023-11-18T04:37:50;102123.75;;;1.02;81.38
50364;BME280;36272;59.400;17.982;2023-11-18T04:42:51;102121.03;;;1.04;81.32
50364;BME280;36272;59.400;17.982;2023-11-18T04:47:56;102115.13;;;1.00;81.54
50364;BME280;36272;59.400;17.982;2023-11-18T04:53:00;102116.00;;;1.01;81.55
50364;BME280;36272;59.400;17.982;2023-11-18T04:58:07;102115.03;;;1.02;81.59
50364;BME280;36272;59.400;17.982;2023-11-18T05:03:10;102107.13;;;1.02;81.61
50364;BME280;36272;59.400;17.982;2023-11-18T05:08:20;102100.19;;;1.01;81.57
50364;BME280;36272;59.400;17.982;2023-11-18T05:13:22;102094.66;;;1.04;81.48
50364;BME280;36272;59.400;17.982;2023-11-18T05:18:23;102092.84;;;1.04;81.32
50364;BME280;36272;59.400;17.982;2023-11-18T05:23:26;102092.75;;;1.06;81.26
50364;BME280;36272;59.400;17.982;2023-11-18T05:28:27;102097.28;;;1.04;81.29
50364;BME280;36272;59.400;17.982;2023-11-18T05:33:30;102094.53;;;1.06;81.18
50364;BME280;36272;59.400;17.982;2023-11-18T05:38:33;102104.50;;;1.02;81.27
50364;BME280;36272;59.400;17.982;2023-11-18T05:43:36;102103.53;;;1.03;81.19
50364;BME280;36272;59.400;17.982;2023-11-18T05:48:42;102098.97;;;1.05;81.35
50364;BME280;36272;59.400;17.982;2023-11-18T05:53:44;102113.81;;;1.06;81.35
50364;BME280;36272;59.400;17.982;2023-11-18T05:58:47;102110.09;;;1.09;81.22
50364;BME280;36272;59.400;17.982;2023-11-18T06:03:48;102109.50;;;1.05;81.33
50364;BME280;36272;59.400;17.982;2023-11-18T06:08:50;102116.56;;;1.04;81.30
50364;BME280;36272;59.400;17.982;2023-11-18T06:13:52;102138.50;;;1.05;81.33
50364;BME280;36272;59.400;17.982;2023-11-18T06:18:57;102136.81;;;1.04;81.41
50364;BME280;36272;59.400;17.982;2023-11-18T06:24:02;102142.09;;;1.04;81.23
50364;BME280;36272;59.400;17.982;2023-11-18T06:29:10;102151.88;;;1.13;81.21
50364;BME280;36272;59.400;17.982;2023-11-18T06:34:11;102149.28;;;1.02;81.09
50364;BME280;36272;59.400;17.982;2023-11-18T06:39:16;102154.91;;;0.97;81.04
50364;BME280;36272;59.400;17.982;2023-11-18T06:44:22;102157.78;;;0.94;81.36
50364;BME280;36272;59.400;17.982;2023-11-18T06:49:25;102160.56;;;0.93;81.16
50364;BME280;36272;59.400;17.982;2023-11-18T06:54:27;102168.56;;;0.91;81.25
50364;BME280;36272;59.400;17.982;2023-11-18T06:59:29;102160.81;;;0.89;81.21
50364;BME280;36272;59.400;17.982;2023-11-18T07:04:31;102161.06;;;0.86;81.18
50364;BME280;36272;59.400;17.982;2023-11-18T07:09:35;102168.25;;;0.84;81.38
50364;BME280;36272;59.400;17.982;2023-11-18T07:14:37;102165.59;;;0.84;81.37
50364;BME280;36272;59.400;17.982;2023-11-18T07:19:39;102158.19;;;0.78;81.07
50364;BME280;36272;59.400;17.982;2023-11-18T07:24:41;102167.44;;;0.72;81.08
50364;BME280;36272;59.400;17.982;2023-11-18T07:29:45;102162.25;;;0.71;81.07
50364;BME280;36272;59.400;17.982;2023-11-18T07:34:46;102164.06;;;0.70;80.90
50364;BME280;36272;59.400;17.982;2023-11-18T07:39:48;102174.84;;;0.67;80.70
50364;BME280;36272;59.400;17.982;2023-11-18T07:44:49;102172.47;;;0.64;80.79
50364;BME280;36272;59.400;17.982;2023-11-18T07:50:12;102151.28;;;0.54;80.87
50364;BME280;36272;59.400;17.982;2023-11-18T08:05:38;102165.16;;;0.56;80.59
50364;BME280;36272;59.400;17.982;2023-11-18T08:10:43;102149.22;;;0.47;80.26
50364;BME280;36272;59.400;17.982;2023-11-18T08:15:45;102153.19;;;0.41;80.53
50364;BME280;36272;59.400;17.982;2023-11-18T08:21:09;102155.72;;;0.42;80.54
50364;BME280;36272;59.400;17.982;2023-11-18T08:26:22;102148.88;;;0.40;80.39
50364;BME280;36272;59.400;17.982;2023-11-18T08:31:49;102155.81;;;0.41;80.00
50364;BME280;36272;59.400;17.982;2023-11-18T08:37:03;102151.50;;;0.40;79.91
50364;BME280;36272;59.400;17.982;2023-11-18T08:42:05;102161.94;;;0.41;80.01
50364;BME280;36272;59.400;17.982;2023-11-18T08:47:08;102161.81;;;0.43;79.98
50364;BME280;36272;59.400;17.982;2023-11-18T08:52:10;102175.47;;;0.48;79.83
50364;BME280;36272;59.400;17.982;2023-11-18T08:57:16;102167.22;;;0.41;79.64
50364;BME280;36272;59.400;17.982;2023-11-18T09:02:25;102172.56;;;0.40;79.60
50364;BME280;36272;59.400;17.982;2023-11-18T09:07:27;102182.38;;;0.38;79.54
50364;BME280;36272;59.400;17.982;2023-11-18T09:12:28;102176.53;;;0.34;79.51
50364;BME280;36272;59.400;17.982;2023-11-18T09:17:30;102183.09;;;0.28;79.59
50364;BME280;36272;59.400;17.982;2023-11-18T09:22:32;102186.91;;;0.24;79.66
50364;BME280;36272;59.400;17.982;2023-11-18T09:27:37;102184.28;;;0.24;79.65
50364;BME280;36272;59.400;17.982;2023-11-18T09:32:40;102181.91;;;0.21;79.36
50364;BME280;36272;59.400;17.982;2023-11-18T09:37:48;102169.72;;;0.20;79.24
50364;BME280;36272;59.400;17.982;2023-11-18T09:42:52;102171.13;;;0.24;79.19
50364;BME280;36272;59.400;17.982;2023-11-18T09:47:54;102183.31;;;0.25;78.92
50364;BME280;36272;59.400;17.982;2023-11-18T09:52:59;102186.47;;;0.19;78.53
50364;BME280;36272;59.400;17.982;2023-11-18T09:58:09;102184.16;;;0.14;78.43
50364;BME280;36272;59.400;17.982;2023-11-18T10:03:16;102186.19;;;0.11;78.40
50364;BME280;36272;59.400;17.982;2023-11-18T10:08:17;102185.00;;;0.15;78.27
50364;BME280;36272;59.400;17.982;2023-11-18T10:13:19;102191.81;;;0.18;77.85
50364;BME280;36272;59.400;17.982;2023-11-18T10:18:24;102187.66;;;0.15;77.81
50364;BME280;36272;59.400;17.982;2023-11-18T10:23:26;102179.97;;;0.23;77.87
50364;BME280;36272;59.400;17.982;2023-11-18T10:28:30;102182.28;;;0.28;77.40
50364;BME280;36272;59.400;17.982;2023-11-18T10:33:36;102175.34;;;0.27;77.30
50364;BME280;36272;59.400;17.982;2023-11-18T10:38:39;102176.16;;;0.27;76.98
50364;BME280;36272;59.400;17.982;2023-11-18T10:44:05;102172.78;;;0.25;76.78
50364;BME280;36272;59.400;17.982;2023-11-18T10:49:07;102171.50;;;0.20;76.74
50364;BME280;36272;59.400;17.982;2023-11-18T10:54:11;102171.13;;;0.24;76.70
50364;BME280;36272;59.400;17.982;2023-11-18T10:59:18;102172.47;;;0.30;76.56
50364;BME280;36272;59.400;17.982;2023-11-18T11:04:20;102175.81;;;0.32;76.17
50364;BME280;36272;59.400;17.982;2023-11-18T11:09:25;102171.28;;;0.34;76.51
50364;BME280;36272;59.400;17.982;2023-11-18T11:14:34;102170.41;;;0.34;76.38
50364;BME280;36272;59.400;17.982;2023-11-18T11:19:50;102166.97;;;0.33;76.11
50364;BME280;36272;59.400;17.982;2023-11-18T11:25:09;102168.75;;;0.33;76.50
50364;BME280;36272;59.400;17.982;2023-11-18T11:30:23;102169.22;;;0.26;76.22
50364;BME280;36272;59.400;17.982;2023-11-18T11:35:33;102170.31;;;0.24;76.16
50364;BME280;36272;59.400;17.982;2023-11-18T11:40:54;102173.03;;;0.22;76.19
50364;BME280;36272;59.400;17.982;2023-11-18T11:45:57;102174.97;;;0.20;76.32
50364;BME280;36272;59.400;17.982;2023-11-18T11:56:51;102176.41;;;0.13;76.37
50364;BME280;36272;59.400;17.982;2023-11-18T12:02:01;102185.84;;;0.16;76.22
50364;BME280;36272;59.400;17.982;2023-11-18T12:07:09;102184.38;;;0.11;76.17
50364;BME280;36272;59.400;17.982;2023-11-18T12:12:18;102177.59;;;0.09;76.28
50364;BME280;36272;59.400;17.982;2023-11-18T12:17:20;102172.09;;;0.12;76.15
50364;BME280;36272;59.400;17.982;2023-11-18T12:22:23;102162.75;;;0.08;76.24
50364;BME280;36272;59.400;17.982;2023-11-18T12:32:59;102168.97;;;0.07;76.18
50364;BME280;36272;59.400;17.982;2023-11-18T12:43:16;102167.88;;;0.09;75.91
50364;BME280;36272;59.400;17.982;2023-11-18T12:48:21;102159.41;;;0.06;75.90
50364;BME280;36272;59.400;17.982;2023-11-18T12:53:28;102162.25;;;0.03;76.05
50364;BME280;36272;59.400;17.982;2023-11-18T12:58:30;102169.06;;;-0.06;75.93
50364;BME280;36272;59.400;17.982;2023-11-18T13:03:35;102176.47;;;-0.11;75.82
50364;BME280;36272;59.400;17.982;2023-11-18T13:08:39;102154.44;;;-0.22;76.23
50364;BME280;36272;59.400;17.982;2023-11-18T13:13:41;102156.47;;;-0.25;76.30
50364;BME280;36272;59.400;17.982;2023-11-18T13:18:47;102152.25;;;-0.28;76.28
50364;BME280;36272;59.400;17.982;2023-11-18T13:23:53;102153.34;;;-0.31;76.33
50364;BME280;36272;59.400;17.982;2023-11-18T13:28:56;102133.47;;;-0.35;76.22
50364;BME280;36272;59.400;17.982;2023-11-18T13:33:57;102132.03;;;-0.39;76.35
50364;BME280;36272;59.400;17.982;2023-11-18T13:38:59;102127.72;;;-0.40;76.49
50364;BME280;36272;59.400;17.982;2023-11-18T13:44:01;102122.47;;;-0.40;76.56
50364;BME280;36272;59.400;17.982;2023-11-18T13:49:07;102117.56;;;-0.44;76.50
50364;BME280;36272;59.400;17.982;2023-11-18T13:54:09;102131.53;;;-0.44;76.68
50364;BME280;36272;59.400;17.982;2023-11-18T13:59:11;102121.25;;;-0.47;76.49
50364;BME280;36272;59.400;17.982;2023-11-18T14:04:15;102134.84;;;-0.53;76.46
50364;BME280;36272;59.400;17.982;2023-11-18T14:09:17;102127.31;;;-0.58;76.39
50364;BME280;36272;59.400;17.982;2023-11-18T14:14:25;102126.47;;;-0.58;76.75
50364;BME280;36272;59.400;17.982;2023-11-18T14:19:28;102128.13;;;-0.57;76.61
50364;BME280;36272;59.400;17.982;2023-11-18T14:24:30;102118.78;;;-0.62;76.32
50364;BME280;36272;59.400;17.982;2023-11-18T14:29:33;102129.78;;;-0.68;76.41
50364;BME280;36272;59.400;17.982;2023-11-18T14:34:35;102134.09;;;-0.67;76.61
50364;BME280;36272;59.400;17.982;2023-11-18T14:39:36;102129.28;;;-0.73;76.54
50364;BME280;36272;59.400;17.982;2023-11-18T14:44:38;102131.41;;;-0.78;76.41
50364;BME280;36272;59.400;17.982;2023-11-18T14:49:41;102132.59;;;-0.82;76.36
50364;BME280;36272;59.400;17.982;2023-11-18T14:54:43;102142.16;;;-0.81;76.45
50364;BME280;36272;59.400;17.982;2023-11-18T14:59:44;102144.28;;;-0.86;76.53
50364;BME280;36272;59.400;17.982;2023-11-18T15:04:47;102146.81;;;-0.98;76.26
50364;BME280;36272;59.400;17.982;2023-11-18T15:09:49;102146.66;;;-1.08;76.63
50364;BME280;36272;59.400;17.982;2023-11-18T15:14:51;102148.16;;;-1.16;76.53
50364;BME280;36272;59.400;17.982;2023-11-18T15:19:56;102138.53;;;-1.29;76.47
50364;BME280;36272;59.400;17.982;2023-11-18T15:24:58;102145.69;;;-1.31;76.60
50364;BME280;36272;59.400;17.982;2023-11-18T15:30:01;102138.34;;;-1.39;76.75
50364;BME280;36272;59.400;17.982;2023-11-18T15:41:02;102134.78;;;-1.51;76.87
50364;BME280;36272;59.400;17.982;2023-11-18T15:46:08;102135.84;;;-1.53;77.01
50364;BME280;36272;59.400;17.982;2023-11-18T15:51:12;102134.38;;;-1.57;77.05
50364;BME280;36272;59.400;17.982;2023-11-18T15:56:47;102133.34;;;-1.55;77.06
50364;BME280;36272;59.400;17.982;2023-11-18T16:01:49;102138.06;;;-1.60;77.05
50364;BME280;36272;59.400;17.982;2023-11-18T16:06:50;102127.88;;;-1.65;76.97
50364;BME280;36272;59.400;17.982;2023-11-18T16:11:52;102118.31;;;-1.66;77.03
50364;BME280;36272;59.400;17.982;2023-11-18T16:16:56;102113.19;;;-1.67;77.25
50364;BME280;36272;59.400;17.982;2023-11-18T16:21:59;102104.59;;;-1.69;76.98
50364;BME280;36272;59.400;17.982;2023-11-18T16:27:01;102106.69;;;-1.74;77.19
50364;BME280;36272;59.400;17.982;2023-11-18T16:32:03;102097.16;;;-1.75;77.29
50364;BME280;36272;59.400;17.982;2023-11-18T16:37:10;102106.09;;;-1.78;77.33
50364;BME280;36272;59.400;17.982;2023-11-18T16:42:12;102096.41;;;-1.77;77.21
50364;BME280;36272;59.400;17.982;2023-11-18T16:47:14;102089.50;;;-1.78;77.48
50364;BME280;36272;59.400;17.982;2023-11-18T16:52:17;102090.22;;;-1.76;77.41
50364;BME280;36272;59.400;17.982;2023-11-18T16:57:19;102078.06;;;-1.77;77.49
50364;BME280;36272;59.400;17.982;2023-11-18T17:02:21;102086.78;;;-1.77;77.44
50364;BME280;36272;59.400;17.982;2023-11-18T17:07:23;102075.63;;;-1.81;77.53
50364;BME280;36272;59.400;17.982;2023-11-18T17:12:32;102061.19;;;-1.86;77.63
50364;BME280;36272;59.400;17.982;2023-11-18T17:17:42;102069.66;;;-1.83;77.62
50364;BME280;36272;59.400;17.982;2023-11-18T17:22:44;102079.00;;;-1.78;77.64
50364;BME280;36272;59.400;17.982;2023-11-18T17:27:46;102075.63;;;-1.81;77.56
50364;BME280;36272;59.400;17.982;2023-11-18T17:32:49;102062.00;;;-1.86;77.60
50364;BME280;36272;59.400;17.982;2023-11-18T17:37:53;102068.09;;;-1.85;77.68
50364;BME280;36272;59.400;17.982;2023-11-18T17:42:55;102077.84;;;-1.87;77.71
50364;BME280;36272;59.400;17.982;2023-11-18T17:47:57;102079.84;;;-1.91;77.81
50364;BME280;36272;59.400;17.982;2023-11-18T17:52:59;102073.25;;;-1.97;77.65
50364;BME280;36272;59.400;17.982;2023-11-18T17:58:03;102077.88;;;-2.00;77.78
50364;BME280;36272;59.400;17.982;2023-11-18T18:03:05;102091.69;;;-1.98;77.75
50364;BME280;36272;59.400;17.982;2023-11-18T18:08:08;102092.44;;;-1.96;77.83
50364;BME280;36272;59.400;17.982;2023-11-18T18:13:09;102083.75;;;-1.97;77.68
50364;BME280;36272;59.400;17.982;2023-11-18T18:18:12;102077.03;;;-2.01;77.76
50364;BME280;36272;59.400;17.982;2023-11-18T18:23:31;102080.50;;;-2.00;77.97
50364;BME280;36272;59.400;17.982;2023-11-18T18:28:34;102082.38;;;-2.02;78.09
50364;BME280;36272;59.400;17.982;2023-11-18T18:33:36;102080.59;;;-2.02;77.94
50364;BME280;36272;59.400;17.982;2023-11-18T18:38:38;102077.75;;;-1.99;77.99
50364;BME280;36272;59.400;17.982;2023-11-18T18:43:39;102079.56;;;-1.99;78.08
50364;BME280;36272;59.400;17.982;2023-11-18T18:48:41;102057.50;;;-1.97;78.07
50364;BME280;36272;59.400;17.982;2023-11-18T18:53:52;102057.09;;;-2.03;78.01
50364;BME280;36272;59.400;17.982;2023-11-18T18:58:53;102067.25;;;-1.99;78.11
50364;BME280;36272;59.400;17.982;2023-11-18T19:03:55;102060.22;;;-1.98;78.00
50364;BME280;36272;59.400;17.982;2023-11-18T19:09:00;102053.22;;;-1.98;78.20
50364;BME280;36272;59.400;17.982;2023-11-18T19:14:03;102035.91;;;-2.00;77.92
50364;BME280;36272;59.400;17.982;2023-11-18T19:19:11;102034.97;;;-1.99;78.20
50364;BME280;36272;59.400;17.982;2023-11-18T19:24:13;102041.78;;;-1.97;78.07
50364;BME280;36272;59.400;17.982;2023-11-18T19:29:15;102044.41;;;-1.97;78.04
50364;BME280;36272;59.400;17.982;2023-11-18T19:34:17;102040.63;;;-1.92;77.88
50364;BME280;36272;59.400;17.982;2023-11-18T19:39:19;102039.75;;;-1.93;78.05
50364;BME280;36272;59.400;17.982;2023-11-18T19:44:23;102029.78;;;-1.88;77.79
50364;BME280;36272;59.400;17.982;2023-11-18T19:49:25;102028.09;;;-1.89;77.96
50364;BME280;36272;59.400;17.982;2023-11-18T19:54:31;102019.72;;;-1.94;77.79
50364;BME280;36272;59.400;17.982;2023-11-18T19:59:33;102022.34;;;-1.94;77.88
50364;BME280;36272;59.400;17.982;2023-11-18T20:04:35;102020.56;;;-1.93;77.73
50364;BME280;36272;59.400;17.982;2023-11-18T20:09:37;102014.16;;;-1.89;77.77
50364;BME280;36272;59.400;17.982;2023-11-18T20:14:38;102016.06;;;-1.91;77.75
50364;BME280;36272;59.400;17.982;2023-11-18T20:19:40;102007.13;;;-1.89;77.83
50364;BME280;36272;59.400;17.982;2023-11-18T20:24:41;102005.97;;;-1.85;77.78
50364;BME280;36272;59.400;17.982;2023-11-18T20:29:44;102009.31;;;-1.83;77.83
50364;BME280;36272;59.400;17.982;2023-11-18T20:34:45;102009.53;;;-1.86;77.77
50364;BME280;36272;59.400;17.982;2023-11-18T20:39:47;102016.25;;;-1.82;77.91
50364;BME280;36272;59.400;17.982;2023-11-18T20:44:49;102003.34;;;-1.85;77.56
50364;BME280;36272;59.400;17.982;2023-11-18T20:49:53;102001.78;;;-1.87;77.79
50364;BME280;36272;59.400;17.982;2023-11-18T20:54:59;101995.59;;;-1.86;77.88
50364;BME280;36272;59.400;17.982;2023-11-18T21:00:05;101989.50;;;-1.87;77.72
50364;BME280;36272;59.400;17.982;2023-11-18T21:05:09;101989.41;;;-1.85;77.62
50364;BME280;36272;59.400;17.982;2023-11-18T21:10:11;101995.59;;;-1.86;77.50
50364;BME280;36272;59.400;17.982;2023-11-18T21:15:19;101986.03;;;-1.87;77.58
50364;BME280;36272;59.400;17.982;2023-11-18T21:20:20;101999.25;;;-1.89;77.64
50364;BME280;36272;59.400;17.982;2023-11-18T21:25:22;101989.84;;;-1.91;77.38
50364;BME280;36272;59.400;17.982;2023-11-18T21:30:24;101976.94;;;-1.95;77.38
50364;BME280;36272;59.400;17.982;2023-11-18T21:35:27;101973.91;;;-2.01;77.41
50364;BME280;36272;59.400;17.982;2023-11-18T21:40:28;101977.47;;;-2.02;77.44
50364;BME280;36272;59.400;17.982;2023-11-18T21:45:30;101973.19;;;-2.03;77.44
50364;BME280;36272;59.400;17.982;2023-11-18T21:50:32;101966.25;;;-2.04;77.43
50364;BME280;36272;59.400;17.982;2023-11-18T21:55:34;101962.69;;;-2.03;77.34
50364;BME280;36272;59.400;17.982;2023-11-18T22:00:36;101939.09;;;-2.03;77.51
50364;BME280;36272;59.400;17.982;2023-11-18T22:05:38;101933.63;;;-2.00;77.32
50364;BME280;36272;59.400;17.982;2023-11-18T22:10:39;101932.69;;;-1.99;77.25
50364;BME280;36272;59.400;17.982;2023-11-18T22:15:41;101927.53;;;-2.01;77.25
50364;BME280;36272;59.400;17.982;2023-11-18T22:20:42;101923.13;;;-2.00;77.44
50364;BME280;36272;59.400;17.982;2023-11-18T22:25:45;101926.72;;;-2.01;77.22
50364;BME280;36272;59.400;17.982;2023-11-18T22:30:49;101912.88;;;-2.03;77.25
50364;BME280;36272;59.400;17.982;2023-11-18T22:35:51;101901.66;;;-2.05;77.26
50364;BME280;36272;59.400;17.982;2023-11-18T22:40:53;101899.84;;;-2.05;77.50
50364;BME280;36272;59.400;17.982;2023-11-18T22:45:55;101888.53;;;-2.05;77.43
50364;BME280;36272;59.400;17.982;2023-11-18T22:50:57;101881.63;;;-2.06;77.53
50364;BME280;36272;59.400;17.982;2023-11-18T22:55:59;101877.09;;;-2.04;77.49
50364;BME280;36272;59.400;17.982;2023-11-18T23:01:00;101876.03;;;-2.02;77.27
50364;BME280;36272;59.400;17.982;2023-11-18T23:06:02;101869.63;;;-1.98;77.43
50364;BME280;36272;59.400;17.982;2023-11-18T23:11:06;101865.44;;;-2.00;77.39
50364;BME280;36272;59.400;17.982;2023-11-18T23:16:10;101836.47;;;-1.99;77.13
50364;BME280;36272;59.400;17.982;2023-11-18T23:21:15;101840.88;;;-1.99;77.30
50364;BME280;36272;59.400;17.982;2023-11-18T23:26:17;101844.22;;;-1.97;77.38
50364;BME280;36272;59.400;17.982;2023-11-18T23:31:19;101831.44;;;-2.02;77.20
50364;BME280;36272;59.400;17.982;2023-11-18T23:36:20;101828.81;;;-2.02;77.27
50364;BME280;36272;59.400;17.982;2023-11-18T23:41:22;101822.03;;;-2.04;77.21
50364;BME280;36272;59.400;17.982;2023-11-18T23:46:24;101815.84;;;-2.03;77.36
50364;BME280;36272;59.400;17.982;2023-11-18T23:51:28;101812.03;;;-1.99;77.32
50364;BME280;36272;59.400;17.982;2023-11-18T23:56:30;101799.16;;;-2.02;77.41
